sensor_id;sensor_type;location;lat;lon;timestamp;P1;durP1;ratioP1;P2;durP2;ratioP2
14052;SDS011;7101;51.600;7.310;2023-05-07T00:00:00;16.25;;;14.55;;
14052;SDS011;7101;51.600;7.310;2023-05-07T00:02:28;17.92;;;13.73;;
14052;SDS011;7101;51.600;7.310;2023-05-07T00:04:56;15.75;;;14.15;;
14052;SDS011;7101;51.600;7.310;2023-05-07T00:07:23;14.68;;;12.88;;
14052;SDS011;7101;51.600;7.310;2023-05-07T00:09:49;14.75;;;13.25;;
14052;SDS011;7101;51.600;7.310;2023-05-07T00:12:16;14.23;;;12.93;;
14052;SDS011;7101;51.600;7.310;2023-05-07T00:14:43;14.38;;;12.98;;
14052;SDS011;7101;51.600;7.310;2023-05-07T00:17:10;14.80;;;13.07;;
14052;SDS011;7101;51.600;7.310;2023-05-07T00:19:38;14.15;;;12.57;;
14052;SDS011;7101;51.600;7.310;2023-05-07T00:22:06;14.15;;;12.63;;
14052;SDS011;7101;51.600;7.310;2023-05-07T00:24:34;13.40;;;12.20;;
14052;SDS011;7101;51.600;7.310;2023-05-07T00:27:00;13.68;;;12.38;;
14052;SDS011;7101;51.600;7.310;2023-05-07T00:29:27;14.35;;;12.80;;
14052;SDS011;7101;51.600;7.310;2023-05-07T00:31:54;14.45;;;13.00;;
14052;SDS011;7101;51.600;7.310;2023-05-07T00:34:21;14.00;;;12.52;;
14052;SDS011;7101;51.600;7.310;2023-05-07T00:36:49;13.50;;;12.10;;
14052;SDS011;7101;51.600;7.310;2023-05-07T00:39:17;15.00;;;13.40;;
14052;SDS011;7101;51.600;7.310;2023-05-07T00:41:44;14.80;;;13.32;;
14052;SDS011;7101;51.600;7.310;2023-05-07T00:44:11;16.45;;;14.27;;
14052;SDS011;7101;51.600;7.310;2023-05-07T00:46:38;16.15;;;14.40;;
14052;SDS011;7101;51.600;7.310;2023-05-07T00:49:04;14.63;;;13.23;;
14052;SDS011;7101;51.600;7.310;2023-05-07T00:51:32;15.63;;;13.98;;
14052;SDS011;7101;51.600;7.310;2023-05-07T00:53:59;15.20;;;13.75;;
14052;SDS011;7101;51.600;7.310;2023-05-07T00:56:29;16.65;;;14.35;;
14052;SDS011;7101;51.600;7.310;2023-05-07T00:58:57;16.23;;;14.27;;
14052;SDS011;7101;51.600;7.310;2023-05-07T01:01:24;16.88;;;14.20;;
14052;SDS011;7101;51.600;7.310;2023-05-07T01:03:52;17.60;;;15.77;;
14052;SDS011;7101;51.600;7.310;2023-05-07T01:06:20;18.75;;;16.55;;
14052;SDS011;7101;51.600;7.310;2023-05-07T01:08:48;19.42;;;17.33;;
14052;SDS011;7101;51.600;7.310;2023-05-07T01:11:18;19.85;;;17.75;;
14052;SDS011;7101;51.600;7.310;2023-05-07T01:13:47;20.10;;;17.20;;
14052;SDS011;7101;51.600;7.310;2023-05-07T01:16:16;18.75;;;16.58;;
14052;SDS011;7101;51.600;7.310;2023-05-07T01:18:43;18.67;;;16.77;;
14052;SDS011;7101;51.600;7.310;2023-05-07T01:21:13;19.83;;;15.63;;
14052;SDS011;7101;51.600;7.310;2023-05-07T01:23:45;16.70;;;15.00;;
14052;SDS011;7101;51.600;7.310;2023-05-07T01:26:13;16.88;;;15.18;;
14052;SDS011;7101;51.600;7.310;2023-05-07T01:28:40;16.52;;;14.75;;
14052;SDS011;7101;51.600;7.310;2023-05-07T01:31:07;16.15;;;14.55;;
14052;SDS011;7101;51.600;7.310;2023-05-07T01:33:35;15.20;;;13.75;;
14052;SDS011;7101;51.600;7.310;2023-05-07T01:36:04;15.63;;;14.13;;
14052;SDS011;7101;51.600;7.310;2023-05-07T01:38:33;15.15;;;13.73;;
14052;SDS011;7101;51.600;7.310;2023-05-07T01:41:02;14.85;;;13.32;;
14052;SDS011;7101;51.600;7.310;2023-05-07T01:43:30;14.32;;;12.88;;
14052;SDS011;7101;51.600;7.310;2023-05-07T01:45:57;16.13;;;13.05;;
14052;SDS011;7101;51.600;7.310;2023-05-07T01:48:25;14.07;;;12.70;;
14052;SDS011;7101;51.600;7.310;2023-05-07T01:50:52;14.00;;;12.70;;
14052;SDS011;7101;51.600;7.310;2023-05-07T01:53:19;15.13;;;13.48;;
14052;SDS011;7101;51.600;7.310;2023-05-07T01:55:46;14.43;;;13.02;;
14052;SDS011;7101;51.600;7.310;2023-05-07T01:58:14;14.85;;;13.35;;
14052;SDS011;7101;51.600;7.310;2023-05-07T02:00:41;15.82;;;14.18;;
14052;SDS011;7101;51.600;7.310;2023-05-07T02:03:08;14.57;;;13.05;;
14052;SDS011;7101;51.600;7.310;2023-05-07T02:05:35;14.93;;;13.43;;
14052;SDS011;7101;51.600;7.310;2023-05-07T02:08:02;15.30;;;13.80;;
14052;SDS011;7101;51.600;7.310;2023-05-07T02:10:29;16.13;;;13.95;;
14052;SDS011;7101;51.600;7.310;2023-05-07T02:12:56;15.38;;;13.57;;
14052;SDS011;7101;51.600;7.310;2023-05-07T02:15:25;15.48;;;14.07;;
14052;SDS011;7101;51.600;7.310;2023-05-07T02:17:58;16.80;;;15.13;;
14052;SDS011;7101;51.600;7.310;2023-05-07T02:20:26;15.63;;;13.98;;
14052;SDS011;7101;51.600;7.310;2023-05-07T02:22:53;15.30;;;13.80;;
14052;SDS011;7101;51.600;7.310;2023-05-07T02:25:20;15.93;;;14.32;;
14052;SDS011;7101;51.600;7.310;2023-05-07T02:27:48;16.77;;;15.07;;
14052;SDS011;7101;51.600;7.310;2023-05-07T02:30:15;17.15;;;15.23;;
14052;SDS011;7101;51.600;7.310;2023-05-07T02:32:43;16.85;;;14.93;;
14052;SDS011;7101;51.600;7.310;2023-05-07T02:35:10;16.95;;;15.13;;
14052;SDS011;7101;51.600;7.310;2023-05-07T02:37:37;16.48;;;14.80;;
14052;SDS011;7101;51.600;7.310;2023-05-07T02:40:05;15.95;;;14.30;;
14052;SDS011;7101;51.600;7.310;2023-05-07T02:42:33;15.10;;;13.50;;
14052;SDS011;7101;51.600;7.310;2023-05-07T02:45:00;17.33;;;14.13;;
14052;SDS011;7101;51.600;7.310;2023-05-07T02:47:27;17.52;;;14.13;;
14052;SDS011;7101;51.600;7.310;2023-05-07T02:49:57;15.60;;;14.10;;
14052;SDS011;7101;51.600;7.310;2023-05-07T02:52:23;15.75;;;14.15;;
14052;SDS011;7101;51.600;7.310;2023-05-07T02:54:51;15.80;;;14.07;;
14052;SDS011;7101;51.600;7.310;2023-05-07T02:57:18;15.02;;;13.52;;
14052;SDS011;7101;51.600;7.310;2023-05-07T02:59:45;15.98;;;13.77;;
14052;SDS011;7101;51.600;7.310;2023-05-07T03:02:12;13.90;;;12.30;;
14052;SDS011;7101;51.600;7.310;2023-05-07T03:04:39;14.77;;;13.27;;
14052;SDS011;7101;51.600;7.310;2023-05-07T03:07:07;14.48;;;12.98;;
14052;SDS011;7101;51.600;7.310;2023-05-07T03:09:34;14.23;;;12.80;;
14052;SDS011;7101;51.600;7.310;2023-05-07T03:12:02;13.90;;;12.60;;
14052;SDS011;7101;51.600;7.310;2023-05-07T03:14:29;13.88;;;12.48;;
14052;SDS011;7101;51.600;7.310;2023-05-07T03:16:56;14.23;;;12.82;;
14052;SDS011;7101;51.600;7.310;2023-05-07T03:19:23;14.23;;;12.73;;
14052;SDS011;7101;51.600;7.310;2023-05-07T03:21:51;13.90;;;12.60;;
14052;SDS011;7101;51.600;7.310;2023-05-07T03:24:19;13.57;;;12.18;;
14052;SDS011;7101;51.600;7.310;2023-05-07T03:26:45;13.32;;;11.88;;
14052;SDS011;7101;51.600;7.310;2023-05-07T03:29:12;12.73;;;11.27;;
14052;SDS011;7101;51.600;7.310;2023-05-07T03:31:39;13.13;;;11.63;;
14052;SDS011;7101;51.600;7.310;2023-05-07T03:34:06;12.68;;;11.43;;
14052;SDS011;7101;51.600;7.310;2023-05-07T03:36:33;12.27;;;11.02;;
14052;SDS011;7101;51.600;7.310;2023-05-07T03:39:00;12.93;;;11.60;;
14052;SDS011;7101;51.600;7.310;2023-05-07T03:41:28;12.80;;;11.27;;
14052;SDS011;7101;51.600;7.310;2023-05-07T03:43:55;11.90;;;10.70;;
14052;SDS011;7101;51.600;7.310;2023-05-07T03:46:22;12.27;;;11.07;;
14052;SDS011;7101;51.600;7.310;2023-05-07T03:48:51;12.10;;;10.80;;
14052;SDS011;7101;51.600;7.310;2023-05-07T03:51:18;11.88;;;10.77;;
14052;SDS011;7101;51.600;7.310;2023-05-07T03:53:44;17.23;;;10.95;;
14052;SDS011;7101;51.600;7.310;2023-05-07T03:56:11;11.80;;;10.55;;
14052;SDS011;7101;51.600;7.310;2023-05-07T03:58:40;13.30;;;10.90;;
14052;SDS011;7101;51.600;7.310;2023-05-07T04:01:07;12.98;;;11.77;;
14052;SDS011;7101;51.600;7.310;2023-05-07T04:03:34;12.45;;;11.25;;
14052;SDS011;7101;51.600;7.310;2023-05-07T04:06:00;13.80;;;11.52;;
14052;SDS011;7101;51.600;7.310;2023-05-07T04:08:27;12.93;;;11.73;;
14052;SDS011;7101;51.600;7.310;2023-05-07T04:10:55;14.75;;;12.52;;
14052;SDS011;7101;51.600;7.310;2023-05-07T04:13:23;14.32;;;12.82;;
14052;SDS011;7101;51.600;7.310;2023-05-07T04:15:52;16.00;;;12.75;;
14052;SDS011;7101;51.600;7.310;2023-05-07T04:18:18;13.45;;;12.05;;
14052;SDS011;7101;51.600;7.310;2023-05-07T04:20:46;15.63;;;12.45;;
14052;SDS011;7101;51.600;7.310;2023-05-07T04:23:14;13.82;;;12.35;;
14052;SDS011;7101;51.600;7.310;2023-05-07T04:25:41;13.30;;;11.88;;
14052;SDS011;7101;51.600;7.310;2023-05-07T04:28:08;13.48;;;10.95;;
14052;SDS011;7101;51.600;7.310;2023-05-07T04:30:36;16.60;;;12.15;;
14052;SDS011;7101;51.600;7.310;2023-05-07T04:33:04;19.60;;;12.40;;
14052;SDS011;7101;51.600;7.310;2023-05-07T04:35:32;12.43;;;11.18;;
14052;SDS011;7101;51.600;7.310;2023-05-07T04:37:59;15.07;;;11.88;;
14052;SDS011;7101;51.600;7.310;2023-05-07T04:40:27;12.77;;;11.48;;
14052;SDS011;7101;51.600;7.310;2023-05-07T04:42:55;12.88;;;11.38;;
14052;SDS011;7101;51.600;7.310;2023-05-07T04:45:21;15.02;;;11.65;;
14052;SDS011;7101;51.600;7.310;2023-05-07T04:47:48;12.30;;;11.10;;
14052;SDS011;7101;51.600;7.310;2023-05-07T04:50:17;13.02;;;11.63;;
14052;SDS011;7101;51.600;7.310;2023-05-07T04:52:47;12.60;;;11.43;;
14052;SDS011;7101;51.600;7.310;2023-05-07T04:55:13;14.10;;;12.25;;
14052;SDS011;7101;51.600;7.310;2023-05-07T04:57:40;13.00;;;11.65;;
14052;SDS011;7101;51.600;7.310;2023-05-07T05:00:08;14.45;;;10.48;;
14052;SDS011;7101;51.600;7.310;2023-05-07T05:02:35;12.10;;;10.77;;
14052;SDS011;7101;51.600;7.310;2023-05-07T05:05:02;12.60;;;10.07;;
14052;SDS011;7101;51.600;7.310;2023-05-07T05:07:31;13.82;;;10.70;;
14052;SDS011;7101;51.600;7.310;2023-05-07T05:09:57;11.70;;;10.50;;
14052;SDS011;7101;51.600;7.310;2023-05-07T05:12:25;11.38;;;9.65;;
14052;SDS011;7101;51.600;7.310;2023-05-07T05:14:52;11.90;;;10.25;;
14052;SDS011;7101;51.600;7.310;2023-05-07T05:17:19;11.40;;;9.77;;
14052;SDS011;7101;51.600;7.310;2023-05-07T05:19:46;11.05;;;9.75;;
14052;SDS011;7101;51.600;7.310;2023-05-07T05:22:12;11.00;;;9.52;;
14052;SDS011;7101;51.600;7.310;2023-05-07T05:24:42;10.43;;;9.00;;
14052;SDS011;7101;51.600;7.310;2023-05-07T05:27:09;12.38;;;9.05;;
14052;SDS011;7101;51.600;7.310;2023-05-07T05:29:36;12.63;;;9.77;;
14052;SDS011;7101;51.600;7.310;2023-05-07T05:32:02;13.50;;;9.80;;
14052;SDS011;7101;51.600;7.310;2023-05-07T05:34:30;10.50;;;9.32;;
14052;SDS011;7101;51.600;7.310;2023-05-07T05:36:58;9.23;;;8.32;;
14052;SDS011;7101;51.600;7.310;2023-05-07T05:39:25;10.30;;;8.10;;
14052;SDS011;7101;51.600;7.310;2023-05-07T05:41:54;10.77;;;9.07;;
14052;SDS011;7101;51.600;7.310;2023-05-07T05:44:21;11.13;;;8.80;;
14052;SDS011;7101;51.600;7.310;2023-05-07T05:46:48;9.23;;;8.05;;
14052;SDS011;7101;51.600;7.310;2023-05-07T05:49:17;8.05;;;7.30;;
14052;SDS011;7101;51.600;7.310;2023-05-07T05:51:43;7.35;;;6.65;;
14052;SDS011;7101;51.600;7.310;2023-05-07T05:54:11;6.90;;;6.20;;
14052;SDS011;7101;51.600;7.310;2023-05-07T05:56:37;6.50;;;5.70;;
14052;SDS011;7101;51.600;7.310;2023-05-07T05:59:06;7.55;;;5.45;;
14052;SDS011;7101;51.600;7.310;2023-05-07T06:01:33;6.55;;;5.88;;
14052;SDS011;7101;51.600;7.310;2023-05-07T06:03:59;8.98;;;5.80;;
14052;SDS011;7101;51.600;7.310;2023-05-07T06:06:26;8.65;;;6.00;;
14052;SDS011;7101;51.600;7.310;2023-05-07T06:08:53;6.93;;;6.00;;
14052;SDS011;7101;51.600;7.310;2023-05-07T06:11:20;6.47;;;5.85;;
14052;SDS011;7101;51.600;7.310;2023-05-07T06:13:47;8.00;;;5.70;;
14052;SDS011;7101;51.600;7.310;2023-05-07T06:16:15;7.03;;;5.13;;
14052;SDS011;7101;51.600;7.310;2023-05-07T06:18:43;10.63;;;5.70;;
14052;SDS011;7101;51.600;7.310;2023-05-07T06:21:11;7.47;;;5.90;;
14052;SDS011;7101;51.600;7.310;2023-05-07T06:23:39;7.68;;;5.38;;
14052;SDS011;7101;51.600;7.310;2023-05-07T06:26:06;6.38;;;5.43;;
14052;SDS011;7101;51.600;7.310;2023-05-07T06:28:33;7.32;;;5.60;;
14052;SDS011;7101;51.600;7.310;2023-05-07T06:31:11;7.80;;;6.22;;
14052;SDS011;7101;51.600;7.310;2023-05-07T06:33:41;6.88;;;6.18;;
14052;SDS011;7101;51.600;7.310;2023-05-07T06:36:08;10.00;;;7.03;;
14052;SDS011;7101;51.600;7.310;2023-05-07T06:38:35;7.82;;;6.53;;
14052;SDS011;7101;51.600;7.310;2023-05-07T06:41:02;7.65;;;6.57;;
14052;SDS011;7101;51.600;7.310;2023-05-07T06:43:32;9.98;;;6.40;;
14052;SDS011;7101;51.600;7.310;2023-05-07T06:45:58;11.73;;;7.13;;
14052;SDS011;7101;51.600;7.310;2023-05-07T06:48:25;8.50;;;7.03;;
14052;SDS011;7101;51.600;7.310;2023-05-07T06:50:54;8.85;;;6.93;;
14052;SDS011;7101;51.600;7.310;2023-05-07T06:53:22;9.82;;;7.07;;
14052;SDS011;7101;51.600;7.310;2023-05-07T06:55:49;10.88;;;8.02;;
14052;SDS011;7101;51.600;7.310;2023-05-07T06:58:17;10.18;;;8.13;;
14052;SDS011;7101;51.600;7.310;2023-05-07T07:00:43;10.70;;;8.07;;
14052;SDS011;7101;51.600;7.310;2023-05-07T07:03:10;10.25;;;8.10;;
14052;SDS011;7101;51.600;7.310;2023-05-07T07:05:37;9.52;;;8.52;;
14052;SDS011;7101;51.600;7.310;2023-05-07T07:08:06;9.35;;;8.40;;
14052;SDS011;7101;51.600;7.310;2023-05-07T07:10:32;10.82;;;8.07;;
14052;SDS011;7101;51.600;7.310;2023-05-07T07:12:59;9.00;;;8.07;;
14052;SDS011;7101;51.600;7.310;2023-05-07T07:15:26;11.02;;;8.57;;
14052;SDS011;7101;51.600;7.310;2023-05-07T07:17:53;10.90;;;8.30;;
14052;SDS011;7101;51.600;7.310;2023-05-07T07:20:21;11.75;;;8.38;;
14052;SDS011;7101;51.600;7.310;2023-05-07T07:22:48;11.30;;;8.40;;
14052;SDS011;7101;51.600;7.310;2023-05-07T07:25:16;13.82;;;9.13;;
14052;SDS011;7101;51.600;7.310;2023-05-07T07:27:43;12.52;;;8.98;;
14052;SDS011;7101;51.600;7.310;2023-05-07T07:30:10;11.63;;;9.25;;
14052;SDS011;7101;51.600;7.310;2023-05-07T07:32:38;11.68;;;9.30;;
14052;SDS011;7101;51.600;7.310;2023-05-07T07:35:05;12.18;;;10.00;;
14052;SDS011;7101;51.600;7.310;2023-05-07T07:37:32;15.10;;;11.25;;
14052;SDS011;7101;51.600;7.310;2023-05-07T07:39:59;11.85;;;10.40;;
14052;SDS011;7101;51.600;7.310;2023-05-07T07:42:28;11.38;;;9.45;;
14052;SDS011;7101;51.600;7.310;2023-05-07T07:44:55;10.65;;;9.02;;
14052;SDS011;7101;51.600;7.310;2023-05-07T07:47:22;13.27;;;10.35;;
14052;SDS011;7101;51.600;7.310;2023-05-07T07:49:49;11.70;;;10.50;;
14052;SDS011;7101;51.600;7.310;2023-05-07T07:52:16;12.15;;;10.85;;
14052;SDS011;7101;51.600;7.310;2023-05-07T07:54:43;11.13;;;10.02;;
14052;SDS011;7101;51.600;7.310;2023-05-07T07:57:10;12.07;;;10.00;;
14052;SDS011;7101;51.600;7.310;2023-05-07T07:59:39;11.20;;;10.05;;
14052;SDS011;7101;51.600;7.310;2023-05-07T08:02:08;11.13;;;10.05;;
14052;SDS011;7101;51.600;7.310;2023-05-07T08:04:36;11.32;;;10.20;;
14052;SDS011;7101;51.600;7.310;2023-05-07T08:07:02;10.88;;;9.40;;
14052;SDS011;7101;51.600;7.310;2023-05-07T08:09:30;10.88;;;9.40;;
14052;SDS011;7101;51.600;7.310;2023-05-07T08:11:57;13.32;;;10.07;;
14052;SDS011;7101;51.600;7.310;2023-05-07T08:14:24;12.70;;;9.77;;
14052;SDS011;7101;51.600;7.310;2023-05-07T08:16:52;11.68;;;9.88;;
14052;SDS011;7101;51.600;7.310;2023-05-07T08:19:19;16.00;;;10.48;;
14052;SDS011;7101;51.600;7.310;2023-05-07T08:21:47;13.50;;;10.80;;
14052;SDS011;7101;51.600;7.310;2023-05-07T08:24:14;11.48;;;10.32;;
14052;SDS011;7101;51.600;7.310;2023-05-07T08:26:42;16.45;;;11.48;;
14052;SDS011;7101;51.600;7.310;2023-05-07T08:29:09;14.77;;;10.68;;
14052;SDS011;7101;51.600;7.310;2023-05-07T08:31:36;11.55;;;10.35;;
14052;SDS011;7101;51.600;7.310;2023-05-07T08:34:05;13.15;;;9.85;;
14052;SDS011;7101;51.600;7.310;2023-05-07T08:36:32;12.23;;;10.82;;
14052;SDS011;7101;51.600;7.310;2023-05-07T08:38:59;13.68;;;12.13;;
14052;SDS011;7101;51.600;7.310;2023-05-07T08:41:26;13.90;;;11.73;;
14052;SDS011;7101;51.600;7.310;2023-05-07T08:43:53;15.98;;;12.38;;
14052;SDS011;7101;51.600;7.310;2023-05-07T08:46:24;14.25;;;12.57;;
14052;SDS011;7101;51.600;7.310;2023-05-07T08:48:51;15.68;;;12.68;;
14052;SDS011;7101;51.600;7.310;2023-05-07T08:51:20;16.85;;;12.60;;
14052;SDS011;7101;51.600;7.310;2023-05-07T08:53:48;16.85;;;13.07;;
14052;SDS011;7101;51.600;7.310;2023-05-07T08:56:16;14.68;;;12.35;;
14052;SDS011;7101;51.600;7.310;2023-05-07T08:58:43;14.23;;;12.25;;
14052;SDS011;7101;51.600;7.310;2023-05-07T09:01:12;14.73;;;12.07;;
14052;SDS011;7101;51.600;7.310;2023-05-07T09:03:40;14.82;;;12.45;;
14052;SDS011;7101;51.600;7.310;2023-05-07T09:06:10;15.23;;;11.85;;
14052;SDS011;7101;51.600;7.310;2023-05-07T09:08:38;16.10;;;12.43;;
14052;SDS011;7101;51.600;7.310;2023-05-07T09:11:05;15.95;;;12.18;;
14052;SDS011;7101;51.600;7.310;2023-05-07T09:13:32;14.43;;;12.57;;
14052;SDS011;7101;51.600;7.310;2023-05-07T09:15:59;13.90;;;12.40;;
14052;SDS011;7101;51.600;7.310;2023-05-07T09:18:40;14.43;;;12.43;;
14052;SDS011;7101;51.600;7.310;2023-05-07T09:21:09;17.55;;;13.80;;
14052;SDS011;7101;51.600;7.310;2023-05-07T09:23:41;18.60;;;13.35;;
14052;SDS011;7101;51.600;7.310;2023-05-07T09:26:08;19.85;;;14.32;;
14052;SDS011;7101;51.600;7.310;2023-05-07T09:28:38;15.15;;;12.85;;
14052;SDS011;7101;51.600;7.310;2023-05-07T09:31:06;15.23;;;12.50;;
14052;SDS011;7101;51.600;7.310;2023-05-07T09:33:33;15.88;;;13.02;;
14052;SDS011;7101;51.600;7.310;2023-05-07T09:36:01;16.98;;;12.90;;
14052;SDS011;7101;51.600;7.310;2023-05-07T09:38:30;15.30;;;12.20;;
14052;SDS011;7101;51.600;7.310;2023-05-07T09:41:03;18.48;;;11.60;;
14052;SDS011;7101;51.600;7.310;2023-05-07T09:43:31;13.90;;;11.80;;
14052;SDS011;7101;51.600;7.310;2023-05-07T09:45:59;17.85;;;12.30;;
14052;SDS011;7101;51.600;7.310;2023-05-07T09:48:29;13.85;;;11.82;;
14052;SDS011;7101;51.600;7.310;2023-05-07T09:50:58;13.32;;;11.20;;
14052;SDS011;7101;51.600;7.310;2023-05-07T09:53:29;12.95;;;9.45;;
14052;SDS011;7101;51.600;7.310;2023-05-07T09:55:57;12.73;;;8.30;;
14052;SDS011;7101;51.600;7.310;2023-05-07T09:58:26;9.40;;;8.40;;
14052;SDS011;7101;51.600;7.310;2023-05-07T10:00:54;10.68;;;9.40;;
14052;SDS011;7101;51.600;7.310;2023-05-07T10:03:23;12.38;;;9.90;;
14052;SDS011;7101;51.600;7.310;2023-05-07T10:05:51;10.45;;;9.30;;
14052;SDS011;7101;51.600;7.310;2023-05-07T10:08:21;10.00;;;8.38;;
14052;SDS011;7101;51.600;7.310;2023-05-07T10:10:48;8.18;;;7.20;;
14052;SDS011;7101;51.600;7.310;2023-05-07T10:13:16;10.48;;;8.82;;
14052;SDS011;7101;51.600;7.310;2023-05-07T10:15:46;11.13;;;9.55;;
14052;SDS011;7101;51.600;7.310;2023-05-07T10:18:14;11.25;;;9.85;;
14052;SDS011;7101;51.600;7.310;2023-05-07T10:20:42;8.93;;;8.02;;
14052;SDS011;7101;51.600;7.310;2023-05-07T10:23:12;9.38;;;8.38;;
14052;SDS011;7101;51.600;7.310;2023-05-07T10:25:44;7.72;;;6.80;;
14052;SDS011;7101;51.600;7.310;2023-05-07T10:28:11;9.55;;;8.40;;
14052;SDS011;7101;51.600;7.310;2023-05-07T10:30:43;9.18;;;8.25;;
14052;SDS011;7101;51.600;7.310;2023-05-07T10:33:23;11.35;;;8.27;;
14052;SDS011;7101;51.600;7.310;2023-05-07T10:35:51;10.07;;;8.05;;
14052;SDS011;7101;51.600;7.310;2023-05-07T10:38:23;9.00;;;8.10;;
14052;SDS011;7101;51.600;7.310;2023-05-07T10:40:51;9.27;;;7.72;;
14052;SDS011;7101;51.600;7.310;2023-05-07T10:43:18;8.73;;;7.00;;
14052;SDS011;7101;51.600;7.310;2023-05-07T10:45:50;8.20;;;7.40;;
14052;SDS011;7101;51.600;7.310;2023-05-07T10:48:38;12.90;;;8.77;;
14052;SDS011;7101;51.600;7.310;2023-05-07T10:51:41;10.02;;;8.23;;
14052;SDS011;7101;51.600;7.310;2023-05-07T10:54:22;12.25;;;9.02;;
14052;SDS011;7101;51.600;7.310;2023-05-07T10:56:52;8.82;;;7.93;;
14052;SDS011;7101;51.600;7.310;2023-05-07T10:59:33;10.48;;;7.97;;
14052;SDS011;7101;51.600;7.310;2023-05-07T11:02:08;9.88;;;8.43;;
14052;SDS011;7101;51.600;7.310;2023-05-07T11:04:37;9.43;;;8.35;;
14052;SDS011;7101;51.600;7.310;2023-05-07T11:07:25;8.70;;;7.80;;
14052;SDS011;7101;51.600;7.310;2023-05-07T11:09:56;12.10;;;8.60;;
14052;SDS011;7101;51.600;7.310;2023-05-07T11:12:50;9.48;;;8.57;;
14052;SDS011;7101;51.600;7.310;2023-05-07T11:18:17;10.70;;;8.85;;
14052;SDS011;7101;51.600;7.310;2023-05-07T11:20:52;11.00;;;8.85;;
14052;SDS011;7101;51.600;7.310;2023-05-07T11:26:30;9.52;;;8.52;;
14052;SDS011;7101;51.600;7.310;2023-05-07T11:29:12;8.90;;;7.90;;
14052;SDS011;7101;51.600;7.310;2023-05-07T11:31:40;9.50;;;8.35;;
14052;SDS011;7101;51.600;7.310;2023-05-07T11:34:09;13.38;;;10.27;;
14052;SDS011;7101;51.600;7.310;2023-05-07T11:36:40;12.02;;;9.27;;
14052;SDS011;7101;51.600;7.310;2023-05-07T11:39:25;9.43;;;8.18;;
14052;SDS011;7101;51.600;7.310;2023-05-07T11:41:53;8.93;;;6.68;;
14052;SDS011;7101;51.600;7.310;2023-05-07T11:44:20;8.90;;;7.43;;
14052;SDS011;7101;51.600;7.310;2023-05-07T11:46:47;10.85;;;8.45;;
14052;SDS011;7101;51.600;7.310;2023-05-07T11:49:16;9.57;;;8.55;;
14052;SDS011;7101;51.600;7.310;2023-05-07T11:51:43;10.45;;;8.23;;
14052;SDS011;7101;51.600;7.310;2023-05-07T11:54:11;8.98;;;8.10;;
14052;SDS011;7101;51.600;7.310;2023-05-07T11:56:42;9.60;;;7.63;;
14052;SDS011;7101;51.600;7.310;2023-05-07T11:59:10;8.40;;;7.10;;
14052;SDS011;7101;51.600;7.310;2023-05-07T12:01:36;9.38;;;8.38;;
14052;SDS011;7101;51.600;7.310;2023-05-07T12:04:03;8.75;;;7.60;;
14052;SDS011;7101;51.600;7.310;2023-05-07T12:06:35;10.38;;;7.35;;
14052;SDS011;7101;51.600;7.310;2023-05-07T12:09:02;8.88;;;7.97;;
14052;SDS011;7101;51.600;7.310;2023-05-07T12:11:32;8.25;;;7.07;;
14052;SDS011;7101;51.600;7.310;2023-05-07T12:13:59;6.72;;;5.35;;
14052;SDS011;7101;51.600;7.310;2023-05-07T12:16:26;7.75;;;6.20;;
14052;SDS011;7101;51.600;7.310;2023-05-07T12:18:53;7.35;;;6.25;;
14052;SDS011;7101;51.600;7.310;2023-05-07T12:21:21;5.72;;;5.13;;
14052;SDS011;7101;51.600;7.310;2023-05-07T12:23:51;5.95;;;5.35;;
14052;SDS011;7101;51.600;7.310;2023-05-07T12:26:19;6.97;;;5.85;;
14052;SDS011;7101;51.600;7.310;2023-05-07T12:28:46;7.50;;;6.57;;
14052;SDS011;7101;51.600;7.310;2023-05-07T12:31:14;8.90;;;6.60;;
14052;SDS011;7101;51.600;7.310;2023-05-07T12:33:41;8.32;;;5.97;;
14052;SDS011;7101;51.600;7.310;2023-05-07T12:36:09;7.97;;;6.15;;
14052;SDS011;7101;51.600;7.310;2023-05-07T12:38:38;6.75;;;6.10;;
14052;SDS011;7101;51.600;7.310;2023-05-07T12:41:08;6.35;;;5.72;;
14052;SDS011;7101;51.600;7.310;2023-05-07T12:43:37;5.15;;;4.65;;
14052;SDS011;7101;51.600;7.310;2023-05-07T12:46:04;6.53;;;5.32;;
14052;SDS011;7101;51.600;7.310;2023-05-07T12:48:32;6.38;;;5.22;;
14052;SDS011;7101;51.600;7.310;2023-05-07T12:51:00;6.80;;;5.15;;
14052;SDS011;7101;51.600;7.310;2023-05-07T12:53:27;8.52;;;6.65;;
14052;SDS011;7101;51.600;7.310;2023-05-07T12:55:55;6.63;;;6.00;;
14052;SDS011;7101;51.600;7.310;2023-05-07T12:58:25;8.57;;;6.45;;
14052;SDS011;7101;51.600;7.310;2023-05-07T13:00:54;7.13;;;6.43;;
14052;SDS011;7101;51.600;7.310;2023-05-07T13:03:24;9.48;;;6.38;;
14052;SDS011;7101;51.600;7.310;2023-05-07T13:05:55;6.82;;;6.13;;
14052;SDS011;7101;51.600;7.310;2023-05-07T13:08:24;9.07;;;5.70;;
14052;SDS011;7101;51.600;7.310;2023-05-07T13:10:51;7.97;;;6.60;;
14052;SDS011;7101;51.600;7.310;2023-05-07T13:13:19;7.28;;;6.40;;
14052;SDS011;7101;51.600;7.310;2023-05-07T13:15:47;7.30;;;6.60;;
14052;SDS011;7101;51.600;7.310;2023-05-07T13:18:14;6.97;;;6.13;;
14052;SDS011;7101;51.600;7.310;2023-05-07T13:20:44;7.63;;;6.85;;
14052;SDS011;7101;51.600;7.310;2023-05-07T13:23:11;10.20;;;7.10;;
14052;SDS011;7101;51.600;7.310;2023-05-07T13:25:38;9.23;;;7.63;;
14052;SDS011;7101;51.600;7.310;2023-05-07T13:28:05;9.60;;;7.28;;
14052;SDS011;7101;51.600;7.310;2023-05-07T13:30:32;8.23;;;7.05;;
14052;SDS011;7101;51.600;7.310;2023-05-07T13:33:03;8.82;;;7.50;;
14052;SDS011;7101;51.600;7.310;2023-05-07T13:35:30;8.38;;;7.47;;
14052;SDS011;7101;51.600;7.310;2023-05-07T13:37:57;7.88;;;6.88;;
14052;SDS011;7101;51.600;7.310;2023-05-07T13:40:24;7.93;;;7.00;;
14052;SDS011;7101;51.600;7.310;2023-05-07T13:42:52;9.07;;;7.53;;
14052;SDS011;7101;51.600;7.310;2023-05-07T13:45:19;7.70;;;6.55;;
14052;SDS011;7101;51.600;7.310;2023-05-07T13:47:46;8.52;;;6.50;;
14052;SDS011;7101;51.600;7.310;2023-05-07T13:50:16;8.57;;;7.00;;
14052;SDS011;7101;51.600;7.310;2023-05-07T13:52:45;8.02;;;6.80;;
14052;SDS011;7101;51.600;7.310;2023-05-07T13:55:15;7.50;;;5.78;;
14052;SDS011;7101;51.600;7.310;2023-05-07T13:57:43;8.15;;;6.22;;
14052;SDS011;7101;51.600;7.310;2023-05-07T14:00:10;9.00;;;5.90;;
14052;SDS011;7101;51.600;7.310;2023-05-07T14:02:38;7.38;;;6.03;;
14052;SDS011;7101;51.600;7.310;2023-05-07T14:05:05;6.53;;;5.07;;
14052;SDS011;7101;51.600;7.310;2023-05-07T14:07:35;6.45;;;4.95;;
14052;SDS011;7101;51.600;7.310;2023-05-07T14:10:02;6.00;;;5.15;;
14052;SDS011;7101;51.600;7.310;2023-05-07T14:12:32;5.30;;;4.55;;
14052;SDS011;7101;51.600;7.310;2023-05-07T14:15:00;9.98;;;5.70;;
14052;SDS011;7101;51.600;7.310;2023-05-07T14:17:27;7.35;;;5.30;;
14052;SDS011;7101;51.600;7.310;2023-05-07T14:19:55;6.13;;;5.53;;
14052;SDS011;7101;51.600;7.310;2023-05-07T14:22:22;7.00;;;6.30;;
14052;SDS011;7101;51.600;7.310;2023-05-07T14:24:50;7.60;;;6.32;;
14052;SDS011;7101;51.600;7.310;2023-05-07T14:27:17;7.65;;;6.85;;
14052;SDS011;7101;51.600;7.310;2023-05-07T14:29:44;7.28;;;6.47;;
14052;SDS011;7101;51.600;7.310;2023-05-07T14:32:15;8.88;;;6.88;;
14052;SDS011;7101;51.600;7.310;2023-05-07T14:34:44;8.07;;;6.88;;
14052;SDS011;7101;51.600;7.310;2023-05-07T14:37:11;7.15;;;6.45;;
14052;SDS011;7101;51.600;7.310;2023-05-07T14:39:38;8.75;;;6.35;;
14052;SDS011;7101;51.600;7.310;2023-05-07T14:42:07;8.27;;;6.70;;
14052;SDS011;7101;51.600;7.310;2023-05-07T14:44:34;7.57;;;6.45;;
14052;SDS011;7101;51.600;7.310;2023-05-07T14:47:01;7.38;;;6.68;;
14052;SDS011;7101;51.600;7.310;2023-05-07T14:49:28;8.90;;;7.10;;
14052;SDS011;7101;51.600;7.310;2023-05-07T14:51:56;7.07;;;6.38;;
14052;SDS011;7101;51.600;7.310;2023-05-07T14:54:24;7.32;;;6.63;;
14052;SDS011;7101;51.600;7.310;2023-05-07T14:56:51;8.80;;;6.68;;